createdAt,value
2024-01-20T00:00:58.838Z,78.90
2024-01-20T00:03:27.449Z,78.90
2024-01-20T00:05:56.218Z,78.40
2024-01-20T00:08:25.258Z,78.90
2024-01-20T00:10:54.160Z,78.90
2024-01-20T00:13:24.647Z,78.90
2024-01-20T00:15:53.386Z,79.00
2024-01-20T00:18:22.520Z,78.50
2024-01-20T00:20:51.588Z,78.60
2024-01-20T00:23:20.991Z,78.10
2024-01-20T00:25:49.931Z,78.20
2024-01-20T00:28:19.489Z,78.30
2024-01-20T00:30:49.914Z,78.20
2024-01-20T00:33:18.494Z,78.20
2024-01-20T00:35:48.576Z,78.40
2024-01-20T00:38:17.224Z,78.10
2024-01-20T00:40:45.768Z,78.20
2024-01-20T00:43:14.572Z,78.20
2024-01-20T00:45:43.062Z,78.00
2024-01-20T00:48:13.051Z,77.70
2024-01-20T00:50:41.715Z,78.10
2024-01-20T00:53:10.324Z,77.90
2024-01-20T00:55:38.887Z,78.10
2024-01-20T00:58:07.621Z,77.60
2024-01-20T01:00:36.123Z,77.30
2024-01-20T01:03:05.374Z,77.60
2024-01-20T01:05:35.374Z,77.10
2024-01-20T01:08:04.446Z,77.00
2024-01-20T01:10:33.065Z,76.30
2024-01-20T01:13:02.149Z,75.90
2024-01-20T01:15:33.343Z,75.50
2024-01-20T01:18:02.194Z,74.80
2024-01-20T01:20:30.891Z,74.70
2024-01-20T01:23:00.820Z,74.10
2024-01-20T01:25:29.375Z,72.30
2024-01-20T01:27:57.964Z,71.30
2024-01-20T01:30:26.700Z,71.30
2024-01-20T01:32:55.290Z,71.00
2024-01-20T01:35:24.007Z,70.90
2024-01-20T01:37:52.592Z,71.10
2024-01-20T01:40:22.780Z,71.00
2024-01-20T01:42:57.545Z,71.10
2024-01-20T01:45:26.497Z,71.40
2024-01-20T01:47:56.827Z,71.60
2024-01-20T01:50:25.744Z,71.50
2024-01-20T01:52:57.083Z,71.30
2024-01-20T01:55:27.352Z,71.80
2024-01-20T01:57:58.090Z,71.70
2024-01-20T02:00:27.349Z,71.60
2024-01-20T02:02:55.919Z,71.60
2024-01-20T02:05:24.544Z,71.80
2024-01-20T02:07:55.125Z,71.50
2024-01-20T02:10:24.290Z,70.40
2024-01-20T02:12:55.046Z,69.80
2024-01-20T02:15:24.188Z,70.30
2024-01-20T02:17:54.108Z,70.20
2024-01-20T02:20:22.762Z,70.10
2024-01-20T02:22:52.808Z,70.40
2024-01-20T02:25:21.768Z,69.50
2024-01-20T02:27:50.356Z,69.50
2024-01-20T02:30:19.076Z,70.00
2024-01-20T02:32:47.805Z,70.10
2024-01-20T02:35:17.472Z,70.70
2024-01-20T02:37:46.121Z,70.60
2024-01-20T02:40:16.255Z,70.80
2024-01-20T02:42:45.029Z,71.00
2024-01-20T02:45:13.632Z,71.00
2024-01-20T02:47:42.378Z,70.30
2024-01-20T02:50:11.341Z,70.80
2024-01-20T02:52:39.828Z,71.50
2024-01-20T02:55:09.221Z,71.40
2024-01-20T02:57:39.344Z,71.90
2024-01-20T03:00:09.998Z,71.30
2024-01-20T03:02:38.779Z,71.70
2024-01-20T03:05:08.792Z,71.80
2024-01-20T03:07:37.222Z,71.70
2024-01-20T03:10:06.584Z,71.70
2024-01-20T03:12:35.395Z,70.80
2024-01-20T03:15:06.800Z,71.00
2024-01-20T03:17:35.929Z,71.10
2024-01-20T03:20:05.074Z,70.90
2024-01-20T03:22:33.755Z,71.00
2024-01-20T03:25:02.340Z,70.90
2024-01-20T03:27:30.943Z,71.30
2024-01-20T03:30:00.006Z,71.30
2024-01-20T03:32:30.006Z,71.40
2024-01-20T03:34:58.513Z,72.10
2024-01-20T03:37:27.060Z,71.50
2024-01-20T03:39:55.555Z,71.20
2024-01-20T03:42:25.043Z,70.90
2024-01-20T03:44:53.955Z,70.80
2024-01-20T03:47:22.771Z,71.50
2024-01-20T03:49:52.819Z,72.10
2024-01-20T03:52:21.529Z,71.00
2024-01-20T03:54:50.125Z,71.40
2024-01-20T03:57:19.039Z,71.80
2024-01-20T03:59:48.328Z,71.90
2024-01-20T04:02:17.000Z,71.70
2024-01-20T04:04:45.777Z,71.80
2024-01-20T04:07:16.382Z,72.10
2024-01-20T04:09:45.207Z,71.70
2024-01-20T04:12:13.982Z,72.00
2024-01-20T04:14:42.741Z,72.00
2024-01-20T04:17:13.356Z,71.70
2024-01-20T04:19:42.213Z,71.70
2024-01-20T04:22:11.073Z,71.90
2024-01-20T04:24:41.483Z,71.60
2024-01-20T04:27:10.387Z,71.70
2024-01-20T04:29:39.115Z,71.90
2024-01-20T04:32:08.335Z,71.30
2024-01-20T04:34:37.039Z,71.20
2024-01-20T04:37:06.195Z,71.70
2024-01-20T04:39:35.279Z,71.50
2024-01-20T04:42:05.873Z,71.40
2024-01-20T04:44:34.456Z,71.20
2024-01-20T04:47:03.092Z,71.20
2024-01-20T04:49:31.846Z,71.00
2024-01-20T04:52:03.264Z,70.80
2024-01-20T04:54:31.949Z,70.40
2024-01-20T04:57:00.737Z,69.70
2024-01-20T04:59:30.866Z,70.00
2024-01-20T05:01:59.554Z,70.00
2024-01-20T05:04:28.469Z,70.20
2024-01-20T05:06:59.244Z,70.10
2024-01-20T05:09:28.245Z,70.00
2024-01-20T05:11:57.015Z,70.00
2024-01-20T05:14:25.648Z,69.70
2024-01-20T05:16:55.875Z,69.10
2024-01-20T05:19:25.345Z,69.40
2024-01-20T05:21:53.139Z,69.20
2024-01-20T05:24:21.914Z,68.20
2024-01-20T05:26:50.980Z,68.00
2024-01-20T05:29:19.663Z,68.10
2024-01-20T05:31:48.289Z,68.30
2024-01-20T05:34:18.403Z,68.20
2024-01-20T05:36:47.211Z,67.80
2024-01-20T05:39:16.537Z,66.90
2024-01-20T05:41:45.151Z,67.30
2024-01-20T05:44:13.786Z,67.10
2024-01-20T05:46:42.882Z,68.00
2024-01-20T05:49:11.630Z,67.70
2024-01-20T05:51:41.900Z,67.30
2024-01-20T05:54:10.686Z,67.80
2024-01-20T05:56:39.166Z,67.00
2024-01-20T05:59:07.710Z,66.80
2024-01-20T06:01:36.239Z,67.70
2024-01-20T06:04:05.913Z,67.60
2024-01-20T06:06:34.773Z,67.90
2024-01-20T06:09:05.447Z,67.50
2024-01-20T06:11:34.483Z,66.90
2024-01-20T06:14:02.951Z,66.90
2024-01-20T06:16:31.692Z,66.60
2024-01-20T06:19:00.454Z,67.30
2024-01-20T06:21:29.282Z,66.40
2024-01-20T06:23:58.160Z,66.00
2024-01-20T06:26:28.225Z,65.30
2024-01-20T06:28:56.767Z,65.30
2024-01-20T06:31:26.109Z,65.80
2024-01-20T06:33:55.359Z,65.80
2024-01-20T06:36:26.703Z,66.10
2024-01-20T06:38:55.790Z,66.00
2024-01-20T06:41:24.432Z,65.40
2024-01-20T06:43:54.565Z,66.10
2024-01-20T06:46:23.424Z,64.80
2024-01-20T06:48:52.537Z,64.60
2024-01-20T06:51:24.395Z,65.20
2024-01-20T06:53:58.843Z,65.10
2024-01-20T06:56:28.103Z,65.60
2024-01-20T06:58:58.343Z,65.60
2024-01-20T07:01:27.255Z,65.90
2024-01-20T07:03:56.061Z,65.70
2024-01-20T07:06:26.274Z,65.80
2024-01-20T07:08:56.361Z,66.00
2024-01-20T07:11:27.414Z,66.00
2024-01-20T07:13:57.731Z,65.40
2024-01-20T07:16:26.224Z,65.00
2024-01-20T07:18:56.129Z,65.40
2024-01-20T07:21:25.086Z,65.40
2024-01-20T07:35:34.575Z,63.50
2024-01-20T07:38:02.917Z,63.70
2024-01-20T07:40:31.423Z,63.70
2024-01-20T07:42:59.847Z,63.70
2024-01-20T07:45:29.263Z,63.60
2024-01-20T07:47:57.654Z,63.00
2024-01-20T07:50:26.563Z,63.90
2024-01-20T07:52:57.077Z,63.60
2024-01-20T07:55:25.984Z,63.40
2024-01-20T07:57:54.311Z,63.70
2024-01-20T08:00:22.915Z,63.00
2024-01-20T08:02:51.246Z,62.00
2024-01-20T08:05:19.720Z,63.00
2024-01-20T08:07:48.164Z,62.60
2024-01-20T08:10:18.049Z,62.40
2024-01-20T08:12:46.403Z,62.60
2024-01-20T08:15:14.798Z,63.40
2024-01-20T08:17:44.412Z,63.00
2024-01-20T08:20:13.748Z,62.40
2024-01-20T08:22:42.324Z,63.70
2024-01-20T08:25:11.076Z,64.70
2024-01-20T08:27:40.900Z,63.80
2024-01-20T08:30:11.234Z,62.40
2024-01-20T08:32:41.137Z,62.10
2024-01-20T08:35:10.211Z,61.70
2024-01-20T08:37:38.510Z,60.60
2024-01-20T08:40:08.214Z,62.10
2024-01-20T08:42:36.620Z,61.10
2024-01-20T08:45:08.002Z,62.20
2024-01-20T08:47:37.891Z,62.50
2024-01-20T08:50:07.429Z,61.90
2024-01-20T08:52:35.857Z,61.90
2024-01-20T08:55:05.312Z,61.20
2024-01-20T08:57:34.750Z,61.80
2024-01-20T09:00:04.317Z,62.80
2024-01-20T09:02:34.486Z,62.60
2024-01-20T09:05:02.932Z,61.80
2024-01-20T09:07:31.460Z,60.60
2024-01-20T09:10:02.398Z,61.60
2024-01-20T09:12:30.933Z,60.60
2024-01-20T09:14:59.773Z,61.80
2024-01-20T09:17:28.347Z,61.60
2024-01-20T09:19:58.292Z,61.50
2024-01-20T09:22:27.007Z,61.50
2024-01-20T09:24:55.983Z,60.70
2024-01-20T09:27:25.905Z,61.00
2024-01-20T09:29:55.709Z,60.80
2024-01-20T09:32:25.181Z,58.90
2024-01-20T09:34:53.624Z,59.10
2024-01-20T09:37:23.574Z,58.80
2024-01-20T09:39:52.284Z,59.00
2024-01-20T09:42:21.980Z,58.80
2024-01-20T09:44:53.754Z,59.00
2024-01-20T09:47:22.315Z,59.90
2024-01-20T09:49:51.341Z,61.00
2024-01-20T09:52:27.488Z,62.60
2024-01-20T09:55:07.737Z,62.10
2024-01-20T09:57:37.928Z,61.10
2024-01-20T10:00:09.796Z,59.20
2024-01-20T10:02:40.550Z,59.00
2024-01-20T10:05:12.606Z,59.40
2024-01-20T10:07:42.881Z,59.40
2024-01-20T10:10:19.576Z,59.20
2024-01-20T10:12:51.722Z,60.00
2024-01-20T10:15:24.309Z,61.00
2024-01-20T10:17:52.838Z,60.90
2024-01-20T10:20:22.588Z,59.90
2024-01-20T10:22:52.891Z,59.80
2024-01-20T10:25:21.558Z,59.50
2024-01-20T10:27:50.851Z,59.40
2024-01-20T10:30:21.367Z,59.40
2024-01-20T10:33:04.000Z,58.60
2024-01-20T10:35:37.672Z,57.30
2024-01-20T10:38:12.980Z,57.50
2024-01-20T10:40:44.176Z,58.10
2024-01-20T10:43:15.975Z,58.00
2024-01-20T10:45:48.876Z,57.80
2024-01-20T10:48:22.331Z,57.90
2024-01-20T10:50:56.805Z,56.80
2024-01-20T10:53:27.949Z,57.80
2024-01-20T10:55:56.948Z,57.70
2024-01-20T10:58:30.113Z,57.30
2024-01-20T11:00:58.866Z,57.30
2024-01-20T11:03:28.327Z,57.50
2024-01-20T11:05:56.944Z,57.80
2024-01-20T11:08:28.393Z,56.20
2024-01-20T11:10:57.822Z,55.40
2024-01-20T11:13:27.810Z,54.40
2024-01-20T11:15:59.342Z,55.00
2024-01-20T11:18:29.311Z,55.30
2024-01-20T11:21:03.391Z,55.60
2024-01-20T11:23:33.831Z,54.60
2024-01-20T11:26:13.216Z,54.70
2024-01-20T11:28:45.390Z,53.20
2024-01-20T11:31:21.150Z,52.70
2024-01-20T11:33:50.538Z,52.40
2024-01-20T11:36:19.390Z,53.90
2024-01-20T11:38:51.304Z,54.30
2024-01-20T11:41:20.443Z,53.60
2024-01-20T11:43:48.999Z,53.30
2024-01-20T11:46:17.825Z,52.40
2024-01-20T11:48:48.691Z,52.10
2024-01-20T11:51:17.647Z,52.20
2024-01-20T11:53:47.028Z,53.70
2024-01-20T11:56:18.579Z,53.80
2024-01-20T11:58:47.193Z,53.40
2024-01-20T12:01:15.941Z,52.30
2024-01-20T12:03:44.645Z,51.70
2024-01-20T12:06:16.785Z,52.50
2024-01-20T12:08:46.811Z,52.80
2024-01-20T12:11:21.338Z,51.80
2024-01-20T12:13:49.814Z,50.00
2024-01-20T12:16:20.138Z,50.90
2024-01-20T12:18:49.506Z,52.60
2024-01-20T12:21:18.824Z,53.90
2024-01-20T12:23:48.368Z,52.80
2024-01-20T12:26:17.668Z,51.90
2024-01-20T12:28:51.704Z,52.60
2024-01-20T12:31:22.924Z,51.30
2024-01-20T12:33:52.269Z,49.80
2024-01-20T12:36:21.101Z,49.60
2024-01-20T12:38:49.722Z,51.10
2024-01-20T12:41:18.193Z,50.50
2024-01-20T12:43:50.237Z,49.20
2024-01-20T12:46:19.128Z,49.40
2024-01-20T12:48:48.000Z,48.10
2024-01-20T12:51:16.831Z,48.10
2024-01-20T12:53:45.620Z,48.30
2024-01-20T12:56:13.974Z,47.10
2024-01-20T12:58:42.492Z,47.60
2024-01-20T13:01:12.316Z,47.30
2024-01-20T13:03:40.735Z,46.90
2024-01-20T13:06:09.322Z,47.20
2024-01-20T13:08:37.835Z,47.60
2024-01-20T13:11:06.389Z,48.50
2024-01-20T13:13:35.157Z,48.80
2024-01-20T13:16:04.066Z,49.50
2024-01-20T13:18:34.327Z,47.90
2024-01-20T13:21:03.160Z,49.40
2024-01-20T13:23:31.564Z,48.40
2024-01-20T13:26:01.917Z,48.30
2024-01-20T13:28:32.026Z,47.90
2024-01-20T13:31:00.525Z,47.10
2024-01-20T13:33:28.946Z,48.20
2024-01-20T13:35:59.018Z,47.80
2024-01-20T13:38:27.512Z,47.70
2024-01-20T13:40:55.939Z,46.90
2024-01-20T13:43:24.630Z,47.30
2024-01-20T13:45:52.989Z,48.50
2024-01-20T13:48:21.624Z,48.90
2024-01-20T13:50:51.024Z,48.10
2024-01-20T13:53:21.307Z,49.50
2024-01-20T13:55:50.968Z,49.10
2024-01-20T13:58:19.447Z,50.20
2024-01-20T14:00:48.579Z,50.90
2024-01-20T14:03:17.242Z,50.20
2024-01-20T14:05:47.920Z,50.10
2024-01-20T14:08:16.630Z,51.70
2024-01-20T14:10:46.958Z,51.50
2024-01-20T14:13:15.432Z,52.00
2024-01-20T14:15:44.010Z,51.20
2024-01-20T14:18:12.912Z,51.80
2024-01-20T14:20:41.469Z,50.60
2024-01-20T14:23:09.827Z,51.30
2024-01-20T14:25:38.174Z,51.40
2024-01-20T14:28:08.325Z,50.70
2024-01-20T14:30:36.718Z,50.40
2024-01-20T14:33:05.694Z,50.70
2024-01-20T14:35:34.137Z,52.60
2024-01-20T14:38:02.489Z,51.70
2024-01-20T14:40:31.185Z,51.50
2024-01-20T14:42:59.469Z,52.50
2024-01-20T14:45:29.716Z,52.50
2024-01-20T14:47:58.135Z,52.10
2024-01-20T14:50:26.768Z,52.60
2024-01-20T14:52:55.099Z,52.40
2024-01-20T14:55:23.509Z,51.40
2024-01-20T14:57:52.033Z,49.70
2024-01-20T15:00:21.008Z,50.50
2024-01-20T15:02:51.042Z,52.10
2024-01-20T15:05:19.723Z,52.40
2024-01-20T15:07:48.164Z,52.30
2024-01-20T15:10:16.842Z,50.10
2024-01-20T15:12:45.257Z,50.50
2024-01-20T15:15:13.768Z,50.00
2024-01-20T15:17:42.235Z,50.20
2024-01-20T15:20:13.106Z,51.20
2024-01-20T15:22:41.625Z,51.30
2024-01-20T15:25:14.014Z,52.40
2024-01-20T15:27:42.438Z,51.50
2024-01-20T15:30:12.495Z,51.20
2024-01-20T15:32:41.663Z,50.90
2024-01-20T15:35:11.747Z,50.60
2024-01-20T15:37:40.090Z,50.90
2024-01-20T15:40:10.185Z,51.50
2024-01-20T15:42:38.702Z,51.10
2024-01-20T15:45:08.239Z,51.20
2024-01-20T15:47:36.947Z,50.90
2024-01-20T15:50:06.173Z,51.00
2024-01-20T15:52:36.456Z,52.00
2024-01-20T15:55:05.567Z,51.40
2024-01-20T15:57:34.240Z,52.00
2024-01-20T16:00:03.991Z,50.90
2024-01-20T16:02:32.377Z,49.90
2024-01-20T16:05:00.811Z,49.80
2024-01-20T16:07:29.233Z,50.00
2024-01-20T16:09:58.899Z,50.70
2024-01-20T16:12:27.401Z,51.20
2024-01-20T16:14:55.798Z,50.70
2024-01-20T16:17:24.509Z,50.80
2024-01-20T16:19:53.326Z,51.70
2024-01-20T16:22:21.650Z,52.40
2024-01-20T16:24:50.295Z,52.80
2024-01-20T16:27:20.391Z,50.80
2024-01-20T16:29:48.956Z,50.30
2024-01-20T16:32:17.378Z,50.20
2024-01-20T16:34:45.801Z,50.10
2024-01-20T16:37:14.254Z,50.50
2024-01-20T16:39:42.854Z,52.10
2024-01-20T16:42:11.758Z,51.80
2024-01-20T16:44:41.619Z,52.40
2024-01-20T16:47:10.017Z,53.60
2024-01-20T16:49:38.554Z,53.70
2024-01-20T16:52:08.256Z,53.00
2024-01-20T16:54:36.654Z,53.00
2024-01-20T16:57:06.218Z,53.70
2024-01-20T16:59:37.632Z,54.60
2024-01-20T17:02:08.101Z,55.50
2024-01-20T17:04:36.793Z,55.90
2024-01-20T17:07:05.928Z,56.00
2024-01-20T17:09:34.327Z,55.40
2024-01-20T17:12:03.652Z,55.80
2024-01-20T17:14:31.962Z,55.90
2024-01-20T17:17:00.339Z,56.00
2024-01-20T17:19:32.817Z,56.30
2024-01-20T17:22:01.233Z,55.80
2024-01-20T17:24:34.990Z,55.30
2024-01-20T17:27:03.578Z,54.80
2024-01-20T17:29:31.995Z,55.10
2024-01-20T17:32:02.057Z,54.60
2024-01-20T17:34:32.707Z,54.10
2024-01-20T17:37:02.214Z,54.40
2024-01-20T17:39:36.236Z,53.90
2024-01-20T17:42:05.813Z,53.40
2024-01-20T17:44:34.422Z,54.30
2024-01-20T17:47:02.931Z,55.20
2024-01-20T17:49:32.920Z,54.00
2024-01-20T17:52:01.421Z,54.40
2024-01-20T17:54:33.335Z,54.30
2024-01-20T17:57:02.296Z,54.70
2024-01-20T17:59:31.062Z,54.80
2024-01-20T18:01:59.518Z,55.40
2024-01-20T18:04:28.111Z,56.20
2024-01-20T18:06:58.039Z,56.10
2024-01-20T18:09:27.359Z,55.00
2024-01-20T18:11:55.912Z,54.70
2024-01-20T18:14:24.299Z,54.70
2024-01-20T18:16:53.201Z,55.10
2024-01-20T18:19:21.737Z,54.80
2024-01-20T18:21:50.394Z,54.80
2024-01-20T18:24:20.244Z,54.90
2024-01-20T18:26:48.768Z,55.60
2024-01-20T18:29:17.297Z,56.10
2024-01-20T18:31:45.689Z,55.80
2024-01-20T18:34:14.134Z,55.70
2024-01-20T18:36:42.649Z,56.10
2024-01-20T18:39:11.241Z,56.00
2024-01-20T18:41:41.372Z,56.80
2024-01-20T18:44:09.743Z,56.10
2024-01-20T18:46:38.464Z,55.90
2024-01-20T18:49:08.566Z,56.10
2024-01-20T18:51:38.864Z,55.20
2024-01-20T18:54:08.941Z,55.00
2024-01-20T18:56:38.431Z,55.10
2024-01-20T18:59:10.036Z,54.20
2024-01-20T19:01:40.784Z,54.60
2024-01-20T19:04:10.016Z,54.00
2024-01-20T19:06:39.631Z,53.50
2024-01-20T19:09:09.441Z,53.10
2024-01-20T19:11:39.264Z,53.00
2024-01-20T19:14:10.156Z,53.00
2024-01-20T19:16:38.581Z,53.60
2024-01-20T19:19:07.387Z,52.90
2024-01-20T19:21:35.921Z,53.50
2024-01-20T19:24:04.537Z,53.50
2024-01-20T19:26:33.005Z,53.90
2024-01-20T19:29:01.500Z,53.80
2024-01-20T19:31:31.401Z,54.00
2024-01-20T19:34:00.012Z,54.00
2024-01-20T19:36:28.970Z,53.90
2024-01-20T19:38:57.908Z,54.80
2024-01-20T19:41:26.638Z,55.80
2024-01-20T19:43:55.198Z,56.10
2024-01-20T19:46:23.538Z,56.00
2024-01-20T19:48:53.475Z,55.90
2024-01-20T19:51:24.462Z,55.80
2024-01-20T19:53:53.165Z,56.10
2024-01-20T19:56:22.931Z,55.90
2024-01-20T19:58:51.446Z,55.50
2024-01-20T20:01:20.911Z,55.50
2024-01-20T20:03:49.808Z,55.50
2024-01-20T20:06:20.191Z,55.10
2024-01-20T20:08:48.846Z,55.20
2024-01-20T20:11:18.667Z,55.80
2024-01-20T20:13:47.174Z,56.60
2024-01-20T20:16:16.495Z,56.90
2024-01-20T20:18:45.048Z,56.40
2024-01-20T20:21:17.239Z,54.70
2024-01-20T20:23:47.318Z,54.50
2024-01-20T20:26:16.028Z,54.80
2024-01-20T20:28:44.822Z,55.40
2024-01-20T20:31:13.964Z,55.20
2024-01-20T20:33:43.771Z,55.10
2024-01-20T20:36:13.069Z,55.00
2024-01-20T20:38:43.130Z,53.40
2024-01-20T20:41:15.274Z,53.40
2024-01-20T20:43:45.468Z,53.40
2024-01-20T20:46:14.274Z,52.70
2024-01-20T20:48:43.560Z,52.50
2024-01-20T20:51:12.658Z,52.10
2024-01-20T20:53:41.273Z,51.70
2024-01-20T20:56:10.050Z,52.40
2024-01-20T20:58:43.945Z,53.20
2024-01-20T21:01:12.822Z,53.40
2024-01-20T21:03:49.047Z,53.70
2024-01-20T21:06:17.788Z,53.70
2024-01-20T21:08:46.517Z,53.40
2024-01-20T21:11:14.949Z,53.40
2024-01-20T21:13:45.791Z,53.00
2024-01-20T21:16:14.581Z,52.40
2024-01-20T21:18:43.162Z,53.10
2024-01-20T21:21:11.871Z,53.30
2024-01-20T21:23:40.771Z,52.90
2024-01-20T21:26:10.052Z,53.40
2024-01-20T21:28:40.035Z,53.30
2024-01-20T21:31:10.104Z,53.70
2024-01-20T21:33:44.180Z,53.40
2024-01-20T21:36:12.998Z,52.90
2024-01-20T21:38:42.761Z,52.80
2024-01-20T21:41:11.812Z,52.30
2024-01-20T21:43:40.183Z,52.50
2024-01-20T21:46:11.079Z,51.50
2024-01-20T21:48:40.223Z,51.20
2024-01-20T21:51:08.653Z,52.30
2024-01-20T21:53:37.685Z,51.70
2024-01-20T21:56:06.469Z,51.80
2024-01-20T21:58:34.833Z,52.20
2024-01-20T22:01:03.649Z,51.90
2024-01-20T22:03:33.663Z,51.60
2024-01-20T22:06:02.173Z,51.60
2024-01-20T22:08:30.590Z,50.60
2024-01-20T22:10:59.466Z,50.60
2024-01-20T22:13:29.173Z,50.50
2024-01-20T22:15:58.625Z,49.00
2024-01-20T22:18:27.986Z,47.60
2024-01-20T22:21:00.169Z,47.40
2024-01-20T22:23:28.598Z,47.00
2024-01-20T22:25:56.997Z,47.30
2024-01-20T22:28:25.469Z,48.30
2024-01-20T22:30:54.204Z,49.90
2024-01-20T22:33:23.626Z,50.10
2024-01-20T22:35:52.344Z,49.90
2024-01-20T22:38:22.236Z,50.20
2024-01-20T22:40:50.900Z,50.10
2024-01-20T22:43:19.710Z,50.60
2024-01-20T22:45:48.538Z,52.40
2024-01-20T22:48:17.030Z,53.20
2024-01-20T22:50:45.588Z,52.20
2024-01-20T22:53:14.490Z,52.20
2024-01-20T22:55:44.334Z,51.40
2024-01-20T22:58:12.782Z,51.60
2024-01-20T23:00:42.014Z,51.10
2024-01-20T23:03:10.446Z,50.10
2024-01-20T23:05:40.925Z,50.20
2024-01-20T23:08:09.728Z,50.50
2024-01-20T23:10:38.197Z,50.40
2024-01-20T23:13:07.990Z,49.70
2024-01-20T23:15:36.392Z,49.80
2024-01-20T23:18:05.085Z,50.20
2024-01-20T23:20:34.818Z,50.10
2024-01-20T23:23:04.191Z,50.20
2024-01-20T23:25:32.843Z,50.70
2024-01-20T23:28:01.236Z,51.50
2024-01-20T23:30:32.444Z,52.90
2024-01-20T23:33:01.820Z,53.30
2024-01-20T23:35:31.536Z,53.90
2024-01-20T23:37:59.952Z,54.10
2024-01-20T23:40:28.359Z,54.00
2024-01-20T23:42:56.665Z,54.80
2024-01-20T23:45:25.469Z,53.20
2024-01-20T23:47:55.280Z,53.40
2024-01-20T23:50:23.662Z,53.60
2024-01-20T23:52:52.019Z,54.20
2024-01-20T23:55:20.549Z,53.60
2024-01-20T23:57:48.962Z,53.40
